Pittsfield, Massachusetts
Current Conditions -  °F | °C
As of 1:09 PM on Thursday 27 Nov 2014 (Local Time) from KPSF Reporting Station
Overcast Overcast  
Wind Chill: 23°   Ceiling: 7000
Heat Index: 28°   Visibility: 10mi
Dew Point: 23°   Wind: 5mph
Humidity: 81%   Direction: 340°NNW
Pressure: 29.91"   Gusts: NA
Location:  42.45°N, 73.25°W
Report Text: KPSF 271809Z AUTO 34004KT 10SM SCT016 BKN070 OVC110 M02/M05 A2991 RMK AO2 T10221050 $
Loading
Personal Weather Stations






























Interactive Weather Map New forecast layout! Learn more

10-Day Weather Forecast

Advertisements
Track Severe Weather on mobile